createdAt,value
2018-09-25T00:02:20.633Z,4.53
2018-09-25T00:04:56.469Z,7.73
2018-09-25T00:07:31.081Z,6.73
2018-09-25T00:10:06.733Z,6.10
2018-09-25T00:12:41.043Z,4.40
2018-09-25T00:15:15.384Z,6.73
2018-09-25T00:17:49.869Z,11.60
2018-09-25T00:20:24.228Z,4.87
2018-09-25T00:22:59.272Z,5.13
2018-09-25T00:25:33.703Z,6.50
2018-09-25T00:28:08.748Z,5.80
2018-09-25T00:30:43.084Z,7.17
2018-09-25T00:33:17.539Z,10.90
2018-09-25T00:35:52.020Z,6.27
2018-09-25T00:38:27.175Z,8.20
2018-09-25T00:41:01.614Z,5.80
2018-09-25T00:43:36.020Z,6.13
2018-09-25T00:46:10.468Z,5.17
2018-09-25T00:48:45.044Z,4.50
2018-09-25T00:51:19.555Z,8.50
2018-09-25T00:53:54.664Z,8.60
2018-09-25T00:56:29.201Z,8.23
2018-09-25T00:59:03.976Z,14.03
2018-09-25T01:01:40.146Z,6.53
2018-09-25T01:04:14.577Z,6.10
2018-09-25T01:06:48.928Z,5.77
2018-09-25T01:09:25.180Z,11.23
2018-09-25T01:11:59.721Z,9.03
2018-09-25T01:14:35.317Z,5.13
2018-09-25T01:17:09.692Z,5.70
2018-09-25T01:19:43.903Z,6.97
2018-09-25T01:22:19.349Z,8.73
2018-09-25T01:24:53.892Z,5.37
2018-09-25T01:27:28.321Z,13.73
2018-09-25T01:30:02.729Z,5.70
2018-09-25T01:32:37.156Z,9.23
2018-09-25T01:35:11.642Z,5.80
2018-09-25T01:37:45.989Z,6.47
2018-09-25T01:40:21.328Z,5.20
2018-09-25T01:42:55.789Z,7.93
2018-09-25T01:45:30.490Z,6.40
2018-09-25T01:48:04.998Z,7.13
2018-09-25T01:50:39.276Z,5.47
2018-09-25T01:53:13.601Z,10.27
2018-09-25T01:55:47.996Z,6.30
2018-09-25T01:58:22.543Z,5.53
2018-09-25T02:00:56.966Z,6.40
2018-09-25T02:03:31.329Z,6.27
2018-09-25T02:06:05.650Z,6.97
2018-09-25T02:08:40.189Z,11.00
2018-09-25T02:11:14.617Z,9.53
2018-09-25T02:13:49.116Z,7.50
2018-09-25T02:16:23.386Z,7.33
2018-09-25T02:18:57.983Z,7.47
2018-09-25T02:21:32.805Z,6.73
2018-09-25T02:24:07.113Z,5.20
2018-09-25T02:26:41.841Z,5.43
2018-09-25T02:29:16.133Z,9.47
2018-09-25T02:31:50.898Z,6.47
2018-09-25T02:34:25.424Z,15.13
2018-09-25T02:37:00.557Z,10.77
2018-09-25T02:39:35.076Z,8.47
2018-09-25T02:42:09.589Z,6.20
2018-09-25T02:44:45.445Z,7.53
2018-09-25T02:47:19.816Z,8.00
2018-09-25T02:49:54.315Z,7.53
2018-09-25T02:52:29.485Z,7.20
2018-09-25T02:55:03.732Z,9.23
2018-09-25T02:57:38.220Z,9.90
2018-09-25T03:00:12.656Z,6.57
2018-09-25T03:02:46.934Z,11.53
2018-09-25T03:05:21.820Z,8.43
2018-09-25T03:07:56.683Z,11.67
2018-09-25T03:10:30.943Z,10.30
2018-09-25T03:13:05.778Z,9.67
2018-09-25T03:15:40.143Z,7.93
2018-09-25T03:18:14.659Z,8.07
2018-09-25T03:20:49.044Z,11.47
2018-09-25T03:23:28.033Z,6.73
2018-09-25T03:26:02.429Z,9.00
2018-09-25T03:28:36.745Z,9.80
2018-09-25T03:31:11.146Z,8.50
2018-09-25T03:33:45.529Z,10.60
2018-09-25T03:36:19.900Z,9.17
2018-09-25T03:38:54.084Z,10.00
2018-09-25T03:41:28.584Z,11.67
2018-09-25T03:44:03.641Z,11.57
2018-09-25T03:46:38.130Z,10.63
2018-09-25T03:49:12.608Z,8.60
2018-09-25T03:51:47.064Z,12.63
2018-09-25T03:54:21.572Z,14.67
2018-09-25T03:56:56.073Z,10.63
2018-09-25T03:59:31.373Z,10.67
2018-09-25T04:02:06.644Z,9.10
2018-09-25T04:04:41.546Z,10.50
2018-09-25T04:07:15.916Z,7.33
2018-09-25T04:09:51.946Z,7.20
2018-09-25T04:12:26.336Z,9.50
2018-09-25T04:15:00.802Z,8.07
2018-09-25T04:17:35.600Z,9.00
2018-09-25T04:20:10.193Z,7.10
2018-09-25T04:22:46.368Z,7.43
2018-09-25T04:25:20.617Z,8.37
2018-09-25T04:27:54.797Z,9.53
2018-09-25T04:30:29.887Z,7.90
2018-09-25T04:33:04.437Z,11.20
2018-09-25T04:35:38.840Z,12.20
2018-09-25T04:38:13.224Z,18.07
2018-09-25T04:40:48.813Z,11.60
2018-09-25T04:43:25.615Z,10.33
2018-09-25T04:48:58.645Z,11.07
2018-09-25T04:51:33.232Z,10.87
2018-09-25T04:54:07.732Z,8.97
2018-09-25T04:56:42.093Z,8.47
2018-09-25T04:59:16.352Z,9.27
2018-09-25T05:01:50.899Z,7.07
2018-09-25T05:04:25.364Z,9.60
2018-09-25T05:06:59.844Z,10.37
2018-09-25T05:09:34.205Z,12.47
2018-09-25T05:12:08.701Z,11.27
2018-09-25T05:14:43.232Z,12.57
2018-09-25T05:17:18.587Z,14.30
2018-09-25T05:19:54.764Z,14.13
2018-09-25T05:22:30.172Z,13.27
2018-09-25T05:25:05.589Z,14.37
2018-09-25T05:27:42.786Z,16.10
2018-09-25T05:30:17.395Z,11.97
2018-09-25T05:32:52.456Z,11.43
2018-09-25T05:35:27.422Z,10.60
2018-09-25T05:38:02.469Z,8.07
2018-09-25T05:40:37.824Z,14.50
2018-09-25T05:43:12.616Z,12.60
2018-09-25T05:45:48.296Z,10.30
2018-09-25T05:48:22.597Z,9.17
2018-09-25T05:50:56.938Z,9.70
2018-09-25T05:53:31.213Z,9.10
2018-09-25T05:56:05.636Z,16.33
2018-09-25T05:58:39.980Z,8.77
2018-09-25T06:01:14.457Z,8.83
2018-09-25T06:03:50.984Z,7.17
2018-09-25T06:06:25.226Z,6.23
2018-09-25T06:08:59.543Z,7.80
2018-09-25T06:11:34.113Z,5.50
2018-09-25T06:14:09.522Z,7.13
2018-09-25T06:16:44.968Z,4.13
2018-09-25T06:19:19.536Z,6.00
2018-09-25T06:21:53.927Z,4.23
2018-09-25T06:24:28.324Z,3.60
2018-09-25T06:27:02.876Z,6.40
2018-09-25T06:29:37.304Z,6.60
2018-09-25T06:32:11.665Z,4.63
2018-09-25T06:34:46.892Z,3.97
2018-09-25T06:37:22.111Z,3.90
2018-09-25T06:39:56.256Z,5.80
2018-09-25T06:42:30.723Z,3.97
2018-09-25T06:45:05.187Z,4.07
2018-09-25T06:47:40.780Z,5.20
2018-09-25T06:50:15.237Z,4.70
2018-09-25T06:52:49.640Z,4.77
2018-09-25T06:55:25.275Z,4.50
2018-09-25T06:57:59.691Z,4.00
2018-09-25T07:00:34.606Z,3.43
2018-09-25T07:03:09.432Z,4.63
2018-09-25T07:05:43.743Z,5.50
2018-09-25T07:08:18.267Z,6.23
2018-09-25T07:10:52.625Z,3.50
2018-09-25T07:13:29.257Z,5.63
2018-09-25T07:16:03.683Z,4.97
2018-09-25T07:18:38.204Z,4.50
2018-09-25T07:21:12.665Z,3.27
2018-09-25T07:23:48.310Z,2.97
2018-09-25T07:26:22.788Z,3.83
2018-09-25T07:28:57.540Z,2.63
2018-09-25T07:31:31.982Z,11.93
2018-09-25T07:34:07.198Z,3.97
2018-09-25T07:36:41.534Z,3.63
2018-09-25T07:39:15.937Z,5.83
2018-09-25T07:41:50.461Z,6.90
2018-09-25T07:44:24.697Z,7.30
2018-09-25T07:46:59.349Z,6.30
2018-09-25T07:49:33.752Z,7.13
2018-09-25T07:52:08.799Z,4.30
2018-09-25T07:54:43.354Z,7.13
2018-09-25T07:57:17.806Z,3.73
2018-09-25T07:59:52.340Z,2.20
2018-09-25T08:02:27.312Z,2.70
2018-09-25T08:05:01.643Z,2.50
2018-09-25T08:07:36.087Z,2.17
2018-09-25T08:10:11.012Z,2.53
2018-09-25T08:12:45.452Z,7.60
2018-09-25T08:15:19.944Z,3.97
2018-09-25T08:17:54.458Z,3.77
2018-09-25T08:20:29.610Z,3.27
2018-09-25T08:23:03.977Z,4.63
2018-09-25T08:25:38.328Z,3.50
2018-09-25T08:28:12.823Z,1.07
2018-09-25T08:30:47.375Z,5.80
2018-09-25T08:33:22.512Z,1.57
2018-09-25T08:35:56.952Z,2.20
2018-09-25T08:38:31.328Z,3.80
2018-09-25T08:41:05.760Z,5.37
2018-09-25T08:43:41.001Z,1.63
2018-09-25T08:46:15.552Z,4.33
2018-09-25T08:48:50.974Z,4.33
2018-09-25T08:51:26.880Z,2.13
2018-09-25T08:54:01.372Z,1.83
2018-09-25T08:56:35.852Z,3.60
2018-09-25T08:59:10.055Z,4.33
2018-09-25T09:01:45.062Z,2.00
2018-09-25T09:04:20.173Z,1.57
2018-09-25T09:06:54.753Z,3.60
2018-09-25T09:09:29.178Z,3.57
2018-09-25T09:12:04.153Z,3.27
2018-09-25T09:14:39.309Z,3.07
2018-09-25T09:17:13.985Z,4.60
2018-09-25T09:19:49.397Z,1.60
2018-09-25T09:22:24.523Z,1.83
2018-09-25T09:24:59.551Z,5.70
2018-09-25T09:27:34.881Z,2.50
2018-09-25T09:30:09.375Z,1.10
2018-09-25T09:32:43.757Z,1.57
2018-09-25T09:35:18.858Z,7.07
2018-09-25T09:37:53.939Z,1.57
2018-09-25T09:40:28.411Z,3.70
2018-09-25T09:43:02.641Z,3.90
2018-09-25T09:45:36.942Z,2.00
2018-09-25T09:48:11.708Z,3.80
2018-09-25T09:50:46.183Z,1.33
2018-09-25T09:53:20.568Z,6.93
2018-09-25T09:55:56.615Z,3.23
2018-09-25T09:58:31.188Z,5.60
2018-09-25T10:01:06.212Z,5.30
2018-09-25T10:03:41.054Z,2.00
2018-09-25T10:06:15.533Z,1.73
2018-09-25T10:08:50.632Z,3.60
2018-09-25T10:11:25.024Z,1.63
2018-09-25T10:13:59.270Z,2.17
2018-09-25T10:16:34.244Z,2.40
2018-09-25T10:19:08.707Z,3.37
2018-09-25T10:21:44.002Z,2.00
2018-09-25T10:24:18.492Z,2.07
2018-09-25T10:26:55.278Z,3.93
2018-09-25T10:29:29.514Z,2.87
2018-09-25T10:32:04.089Z,3.03
2018-09-25T10:34:40.288Z,5.50
2018-09-25T10:37:14.585Z,1.73
2018-09-25T10:39:48.948Z,2.97
2018-09-25T10:42:23.520Z,1.63
2018-09-25T10:44:57.880Z,2.10
2018-09-25T10:47:32.414Z,1.57
2018-09-25T10:50:07.545Z,3.20
2018-09-25T10:52:41.656Z,2.10
2018-09-25T10:55:17.198Z,4.90
2018-09-25T10:57:52.982Z,2.27
2018-09-25T11:00:27.482Z,2.90
2018-09-25T11:03:01.806Z,1.13
2018-09-25T11:05:36.328Z,2.10
2018-09-25T11:08:10.880Z,4.63
2018-09-25T11:10:45.388Z,2.17
2018-09-25T11:13:20.640Z,2.63
2018-09-25T11:15:55.182Z,1.40
2018-09-25T11:18:30.049Z,2.00
2018-09-25T11:21:05.373Z,4.83
2018-09-25T11:23:39.512Z,1.83
2018-09-25T11:26:14.016Z,4.53
2018-09-25T11:28:48.393Z,4.40
2018-09-25T11:31:23.499Z,5.17
2018-09-25T11:33:58.650Z,4.03
2018-09-25T11:36:33.006Z,2.20
2018-09-25T11:39:08.373Z,2.40
2018-09-25T11:41:42.842Z,2.80
2018-09-25T11:44:17.195Z,2.07
2018-09-25T11:46:52.497Z,4.93
2018-09-25T11:49:28.161Z,2.80
2018-09-25T11:52:03.567Z,2.70
2018-09-25T11:54:38.732Z,1.70
2018-09-25T11:57:13.839Z,3.63
2018-09-25T11:59:50.387Z,2.23
2018-09-25T12:02:25.045Z,2.50
2018-09-25T12:05:02.032Z,4.77
2018-09-25T12:07:36.224Z,4.30
2018-09-25T12:10:12.016Z,2.73
2018-09-25T12:12:46.389Z,2.23
2018-09-25T12:15:20.847Z,1.50
2018-09-25T12:17:57.193Z,2.83
2018-09-25T12:20:31.433Z,1.50
2018-09-25T12:23:07.032Z,4.60
2018-09-25T12:25:45.089Z,1.70
2018-09-25T12:28:20.415Z,3.87
2018-09-25T12:30:55.494Z,4.10
2018-09-25T12:33:29.592Z,6.70
2018-09-25T12:36:04.059Z,4.93
2018-09-25T12:38:38.369Z,2.10
2018-09-25T12:41:14.027Z,3.90
2018-09-25T12:43:48.628Z,4.20
2018-09-25T12:46:25.230Z,3.60
2018-09-25T12:48:59.703Z,4.17
2018-09-25T12:51:35.309Z,4.63
2018-09-25T12:54:09.516Z,2.13
2018-09-25T12:56:43.783Z,2.70
2018-09-25T12:59:20.052Z,3.47
2018-09-25T13:01:55.462Z,2.20
2018-09-25T13:04:30.556Z,2.70
2018-09-25T13:07:05.886Z,3.00
2018-09-25T13:09:41.489Z,3.00
2018-09-25T13:12:15.784Z,2.60
2018-09-25T13:14:51.136Z,0.90
2018-09-25T13:17:26.222Z,4.07
2018-09-25T13:20:01.591Z,0.60
2018-09-25T13:22:35.960Z,1.43
2018-09-25T13:25:10.510Z,2.10
2018-09-25T13:27:45.526Z,2.90
2018-09-25T13:30:20.781Z,1.03
2018-09-25T13:32:55.542Z,1.30
2018-09-25T13:35:30.073Z,2.30
2018-09-25T13:38:04.372Z,1.67
2018-09-25T13:40:40.047Z,2.93
2018-09-25T13:43:14.573Z,2.30
2018-09-25T13:45:50.058Z,2.47
2018-09-25T13:48:26.154Z,2.50
2018-09-25T13:51:00.588Z,3.20
2018-09-25T13:53:35.060Z,5.17
2018-09-25T13:56:09.596Z,3.17
2018-09-25T13:58:44.433Z,4.90
2018-09-25T14:01:19.448Z,3.60
2018-09-25T14:03:55.222Z,2.03
2018-09-25T14:06:29.894Z,2.43
2018-09-25T14:09:04.258Z,1.77
2018-09-25T14:11:38.676Z,3.23
2018-09-25T14:14:15.241Z,3.27
2018-09-25T14:16:50.535Z,1.20
2018-09-25T14:19:25.927Z,3.53
2018-09-25T14:22:00.559Z,1.30
2018-09-25T14:24:35.466Z,1.67
2018-09-25T14:27:09.861Z,5.53
2018-09-25T14:29:44.217Z,1.83
2018-09-25T14:32:19.327Z,6.10
2018-09-25T14:34:53.691Z,5.00
2018-09-25T14:37:28.919Z,5.97
2018-09-25T14:40:04.909Z,1.40
2018-09-25T14:42:40.164Z,2.67
2018-09-25T14:45:18.137Z,4.10
2018-09-25T14:47:52.472Z,2.27
2018-09-25T14:50:27.481Z,2.37
2018-09-25T14:53:04.584Z,3.77
2018-09-25T14:55:39.382Z,4.13
2018-09-25T14:58:14.830Z,2.70
2018-09-25T15:00:49.563Z,2.37
2018-09-25T15:03:29.165Z,3.00
2018-09-25T15:06:03.584Z,3.37
2018-09-25T15:08:38.829Z,5.70
2018-09-25T15:11:13.120Z,4.73
2018-09-25T15:13:48.266Z,1.63
2018-09-25T15:16:22.533Z,2.73
2018-09-25T15:18:57.648Z,2.00
2018-09-25T15:21:32.881Z,3.40
2018-09-25T15:24:07.268Z,2.80
2018-09-25T15:26:41.691Z,1.93
2018-09-25T15:29:16.282Z,1.27
2018-09-25T15:31:50.752Z,4.03
2018-09-25T15:34:26.014Z,2.10
2018-09-25T15:37:00.286Z,2.30
2018-09-25T15:39:34.760Z,2.33
2018-09-25T15:42:09.508Z,4.90
2018-09-25T15:44:44.706Z,2.87
2018-09-25T15:47:21.035Z,1.33
2018-09-25T15:49:56.456Z,2.43
2018-09-25T15:52:33.842Z,1.90
2018-09-25T15:55:08.484Z,2.17
2018-09-25T15:57:43.711Z,2.90
2018-09-25T16:00:18.502Z,7.60
2018-09-25T16:02:52.810Z,3.50
2018-09-25T16:05:27.328Z,1.90
2018-09-25T16:08:01.941Z,2.57
2018-09-25T16:10:36.345Z,2.50
2018-09-25T16:13:12.239Z,5.30
2018-09-25T16:15:46.728Z,1.83
2018-09-25T16:18:21.847Z,0.97
2018-09-25T16:20:56.396Z,2.73
2018-09-25T16:23:30.704Z,3.00
2018-09-25T16:26:05.750Z,3.60
2018-09-25T16:28:40.317Z,2.80
2018-09-25T16:31:16.617Z,1.83
2018-09-25T16:33:51.258Z,3.93
2018-09-25T16:36:25.815Z,2.70
2018-09-25T16:39:01.300Z,2.50
2018-09-25T16:41:35.656Z,1.33
2018-09-25T16:44:10.267Z,3.50
2018-09-25T16:46:44.459Z,1.67
2018-09-25T16:49:19.707Z,3.87
2018-09-25T16:51:55.589Z,1.90
2018-09-25T16:54:29.816Z,2.80
2018-09-25T16:57:04.775Z,1.80
2018-09-25T16:59:39.994Z,2.00
2018-09-25T17:02:14.215Z,5.30
2018-09-25T17:04:48.679Z,4.10
2018-09-25T17:07:22.949Z,2.70
2018-09-25T17:09:57.368Z,3.07
2018-09-25T17:12:31.707Z,8.33
2018-09-25T17:15:06.217Z,3.47
2018-09-25T17:17:40.647Z,3.33
2018-09-25T17:20:15.051Z,2.93
2018-09-25T17:22:49.496Z,1.53
2018-09-25T17:25:24.849Z,4.30
2018-09-25T17:27:59.166Z,5.47
2018-09-25T17:30:34.410Z,5.73
2018-09-25T17:33:08.821Z,9.13
2018-09-25T17:35:43.366Z,4.97
2018-09-25T17:38:19.320Z,2.57
2018-09-25T17:40:54.374Z,4.10
2018-09-25T17:43:28.806Z,5.90
2018-09-25T17:46:04.145Z,2.37
2018-09-25T17:48:38.193Z,4.27
2018-09-25T17:51:12.248Z,12.57
2018-09-25T17:53:46.447Z,2.10
2018-09-25T17:56:20.527Z,5.00
2018-09-25T17:58:54.845Z,1.80
2018-09-25T18:01:29.847Z,2.30
2018-09-25T18:04:04.479Z,3.07
2018-09-25T18:06:39.001Z,4.40
2018-09-25T18:09:15.056Z,4.47
2018-09-25T18:11:49.530Z,3.90
2018-09-25T18:14:23.973Z,2.40
2018-09-25T18:16:59.000Z,1.77
2018-09-25T18:19:33.277Z,3.13
2018-09-25T18:22:08.084Z,1.93
2018-09-25T18:24:42.508Z,6.20
2018-09-25T18:27:16.869Z,3.20
2018-09-25T18:29:51.484Z,2.40
2018-09-25T18:32:25.899Z,6.10
2018-09-25T18:35:00.147Z,2.50
2018-09-25T18:37:34.606Z,5.00
2018-09-25T18:40:08.959Z,4.43
2018-09-25T18:42:43.506Z,4.10
2018-09-25T18:45:17.924Z,4.17
2018-09-25T18:47:52.981Z,2.70
2018-09-25T18:50:29.001Z,3.20
2018-09-25T18:53:04.251Z,4.53
2018-09-25T18:55:38.601Z,2.70
2018-09-25T18:58:13.678Z,0.83
2018-09-25T19:00:48.355Z,5.93
2018-09-25T19:03:24.632Z,5.53
2018-09-25T19:05:59.064Z,4.23
2018-09-25T19:08:33.682Z,1.60
2018-09-25T19:11:08.035Z,2.73
2018-09-25T19:13:42.357Z,2.80
2018-09-25T19:16:16.903Z,2.87
2018-09-25T19:18:52.217Z,3.00
2018-09-25T19:21:26.789Z,4.97
2018-09-25T19:24:01.228Z,2.97
2018-09-25T19:26:36.652Z,1.73
2018-09-25T19:29:11.024Z,1.70
2018-09-25T19:31:46.219Z,4.17
2018-09-25T19:34:20.674Z,1.20
2018-09-25T19:36:56.091Z,3.87
2018-09-25T19:39:31.190Z,3.07
2018-09-25T19:42:07.408Z,9.27
2018-09-25T19:44:41.974Z,3.20
2018-09-25T19:47:21.004Z,3.40
2018-09-25T19:49:56.846Z,2.30
2018-09-25T19:52:31.275Z,2.40
2018-09-25T19:55:05.668Z,2.90
2018-09-25T19:57:40.147Z,2.90
2018-09-25T20:00:15.177Z,3.03
2018-09-25T20:02:50.328Z,4.87
2018-09-25T20:05:24.714Z,3.97
2018-09-25T20:07:59.565Z,2.93
2018-09-25T20:10:34.861Z,2.63
2018-09-25T20:13:11.921Z,2.00
2018-09-25T20:15:46.373Z,2.30
2018-09-25T20:18:20.921Z,2.67
2018-09-25T20:20:55.209Z,4.40
2018-09-25T20:23:29.636Z,1.57
2018-09-25T20:26:04.065Z,3.30
2018-09-25T20:28:38.472Z,2.50
2018-09-25T20:31:13.615Z,3.27
2018-09-25T20:33:47.921Z,1.80
2018-09-25T20:36:22.359Z,2.30
2018-09-25T20:38:57.109Z,2.70
2018-09-25T20:41:32.429Z,1.37
2018-09-25T20:44:08.532Z,1.87
2018-09-25T20:46:44.907Z,7.43
2018-09-25T20:49:19.384Z,6.97
2018-09-25T20:51:53.939Z,3.50
2018-09-25T20:54:28.519Z,2.43
2018-09-25T20:57:03.119Z,1.50
2018-09-25T20:59:38.199Z,1.70
2018-09-25T21:02:13.400Z,1.20
2018-09-25T21:04:47.921Z,3.33
2018-09-25T21:07:22.292Z,3.47
2018-09-25T21:09:56.626Z,3.00
2018-09-25T21:12:31.805Z,5.30
2018-09-25T21:15:06.423Z,1.70
2018-09-25T21:17:41.524Z,1.80
2018-09-25T21:20:15.918Z,1.50
2018-09-25T21:22:50.313Z,1.47
2018-09-25T21:25:24.690Z,7.67
2018-09-25T21:27:59.273Z,4.20
2018-09-25T21:30:34.379Z,6.63
2018-09-25T21:33:09.759Z,2.27
2018-09-25T21:35:44.807Z,1.80
2018-09-25T21:38:19.860Z,3.33
2018-09-25T21:40:54.261Z,1.27
2018-09-25T21:43:28.815Z,4.70
2018-09-25T21:46:03.205Z,7.77
2018-09-25T21:48:38.549Z,1.47
2018-09-25T21:51:13.046Z,6.10
2018-09-25T21:53:47.188Z,4.87
2018-09-25T21:56:21.788Z,3.03
2018-09-25T21:58:56.641Z,6.33
2018-09-25T22:01:31.858Z,4.17
2018-09-25T22:04:06.466Z,5.50
2018-09-25T22:06:41.047Z,3.50
2018-09-25T22:09:16.123Z,2.30
2018-09-25T22:11:50.575Z,1.83
2018-09-25T22:14:27.245Z,4.40
2018-09-25T22:17:01.594Z,5.57
2018-09-25T22:19:36.466Z,3.03
2018-09-25T22:22:10.955Z,5.93
2018-09-25T22:24:46.165Z,4.33
2018-09-25T22:27:20.329Z,2.43
2018-09-25T22:29:54.603Z,2.80
2018-09-25T22:32:28.985Z,1.60
2018-09-25T22:35:04.076Z,1.90
2018-09-25T22:37:39.540Z,4.23
2018-09-25T22:40:14.218Z,3.03
2018-09-25T22:42:48.847Z,2.60
2018-09-25T22:45:24.411Z,3.63
2018-09-25T22:47:59.877Z,7.63
2018-09-25T22:50:35.110Z,2.40
2018-09-25T22:53:10.332Z,4.80
2018-09-25T22:55:44.668Z,2.47
2018-09-25T22:58:19.942Z,1.23
2018-09-25T23:00:54.195Z,6.30
2018-09-25T23:03:28.852Z,3.20
2018-09-25T23:06:03.921Z,1.90
2018-09-25T23:08:38.166Z,2.17
2018-09-25T23:11:13.166Z,1.73
2018-09-25T23:13:49.649Z,1.70
2018-09-25T23:16:26.965Z,3.13
2018-09-25T23:19:01.374Z,2.53
2018-09-25T23:21:35.818Z,3.40
2018-09-25T23:24:10.691Z,4.33
2018-09-25T23:26:45.182Z,1.23
2018-09-25T23:29:19.875Z,5.30
2018-09-25T23:31:54.940Z,3.60
2018-09-25T23:34:29.956Z,3.50
2018-09-25T23:37:04.412Z,2.50
2018-09-25T23:40:00.456Z,3.93
2018-09-25T23:42:34.801Z,3.27
2018-09-25T23:45:09.607Z,3.03
2018-09-25T23:47:43.776Z,3.40
2018-09-25T23:50:19.126Z,2.23
2018-09-25T23:53:05.098Z,7.00
2018-09-25T23:55:41.401Z,1.30
2018-09-25T23:58:16.392Z,1.33
